Sand Master — WDF7088 — position and weather

sailwx.info

Track history (hours):
 
Tides and Currents Weather Stations Pressure Air Temp Water Temp Dewpoint Dewpoint Depression Visibility Wind Speed Wind Dir Waves Ship Positions

Sand Master

Owner: Amboy Aggregates, South Amboy, NJ. More information available from US FCC via Universal Licensing System and Coast Guard Vessel Documentation Center.

Last reported at 2016-Jun-17 02:31 UTC. Time now 2016-Jul-30 16:49 UTC.
Position N 25°47' W 079°53'.
Warning: this ship's position is 43 days out of date.

Length 33 m; draft 4 m.

Type: Tug. MMSI: 367480970.

Date/timePositionNaut miles runAvg speedWind from/ knotsBaromVisibWave heightAir tempDewpointWater temp
2016-Jun-17 02:31N 25°47' W 079°53'5 4.9
2016-Jun-17 01:33N 25°52' W 079°52'5 4.8
2016-Jun-17 00:33N 25°57' W 079°51'5 4.6
2016-Jun-16 23:33N 26°01' W 079°51'5 4.7
2016-Jun-16 22:33N 26°06' W 079°50'5 5.5
2016-Jun-16 21:33N 26°11' W 079°51'6 6.5
2016-Jun-16 20:33N 26°18' W 079°51'7 7.2
2016-Jun-16 19:33N 26°25' W 079°51'7 6.6
2016-Jun-16 18:33N 26°32' W 079°51'6 6.3
2016-Jun-16 17:33N 26°38' W 079°51'9 6.4
2016-Jun-16 16:04N 26°47' W 079°51'9 5.6
2016-Jun-16 14:32N 26°56' W 079°51'5 4.9
2016-Jun-16 13:26N 27°01' W 079°52'4 4.6
2016-Jun-16 12:33N 27°05' W 079°52'  
2016-Jun-14 07:31N 31°41' W 079°27'6 6.4
2016-Jun-14 06:33N 31°46' W 079°22'28 6.2
2016-Jun-14 02:05N 32°05' W 078°58'3 5.5
2016-Jun-14 01:32N 32°07' W 078°56'143 6.8
2016-Jun-13 04:33N 33°46' W 076°52'5 5.5
2016-Jun-13 03:33N 33°50' W 076°48'6 5.8
2016-Jun-13 02:33N 33°54' W 076°42'5 5.3
2016-Jun-13 01:33N 33°57' W 076°37'6 5.6
2016-Jun-13 00:33N 34°01' W 076°33'5 5.4
2016-Jun-12 23:33N 34°05' W 076°28'5 4.7
2016-Jun-12 22:33N 34°08' W 076°24'5 4.8
2016-Jun-12 21:33N 34°11' W 076°19'5 5.0
2016-Jun-12 20:33N 34°15' W 076°15'5 4.9
2016-Jun-12 19:33N 34°18' W 076°11'5 4.9
2016-Jun-12 18:33N 34°21' W 076°06'5 5.3
2016-Jun-12 17:32N 34°25' W 076°02'6 5.9
2016-Jun-12 16:27N 34°30' W 075°57'  
2016-Jun-10 06:33N 39°39' W 073°48'7 7.0
2016-Jun-10 05:33N 39°46' W 073°46'7 6.7
2016-Jun-10 04:33N 39°53' W 073°46'42 6.4
2016-Jun-09 22:03N 40°33' W 074°02'5 9.3
2016-Jun-09 21:33N 40°37' W 074°03'7 3.3
2016-Jun-09 19:33N 40°38' W 074°12'0 0.0
2016-Jun-09 18:27N 40°38' W 074°12'0 0.0
2016-Jun-09 17:03N 40°38' W 074°12'0 0.0
2016-Jun-09 16:33N 40°38' W 074°12'0 0.0
2016-Jun-09 15:30N 40°38' W 074°12'0 0.0
2016-Jun-09 14:33N 40°38' W 074°12'0 0.3
2016-Jun-09 13:33N 40°39' W 074°12'2 1.6
2016-Jun-09 12:25N 40°38' W 074°09'0 0.0
2016-Jun-09 11:31N 40°38' W 074°09'0 0.0
2016-Jun-09 10:31N 40°38' W 074°09'0 0.0
2016-Jun-09 09:31N 40°38' W 074°09'0 0.0
2016-Jun-09 08:31N 40°38' W 074°09'0 0.0
2016-Jun-09 07:31N 40°38' W 074°09'0 0.0
2016-Jun-09 06:31N 40°38' W 074°09'0 0.0
2016-Jun-09 05:31N 40°38' W 074°09'0 0.0
2016-Jun-09 04:31N 40°38' W 074°09'0 0.0
2016-Jun-09 03:31N 40°38' W 074°09'0 0.0
2016-Jun-09 02:28N 40°38' W 074°09'0 0.0
2016-Jun-09 01:31N 40°38' W 074°09'0 0.0
2016-Jun-09 00:31N 40°38' W 074°09'0 0.0
2016-Jun-08 23:31N 40°38' W 074°09'0 0.0
2016-Jun-08 22:31N 40°38' W 074°09'0 0.0
2016-Jun-08 21:31N 40°38' W 074°09'0 0.0
2016-Jun-08 20:31N 40°38' W 074°09'0 0.0
2016-Jun-08 19:31N 40°38' W 074°09'0 0.0
2016-Jun-08 18:31N 40°38' W 074°09'0 0.0
2016-Jun-08 17:31N 40°38' W 074°09'0 0.0
2016-Jun-08 16:31N 40°38' W 074°09'0 0.0
2016-Jun-08 15:31N 40°38' W 074°09'0 0.0
2016-Jun-08 14:31N 40°38' W 074°09'0 0.0
2016-Jun-08 13:31N 40°38' W 074°09'0 0.0
2016-Jun-08 12:31N 40°38' W 074°09'0 0.0
2016-Jun-08 11:31N 40°38' W 074°09'0 0.0
2016-Jun-08 10:31N 40°38' W 074°09'0 0.0
2016-Jun-08 09:31N 40°38' W 074°09'0 0.0
2016-Jun-08 08:28N 40°38' W 074°09'0 0.0
2016-Jun-08 07:31N 40°38' W 074°09'0 0.0
2016-Jun-08 06:31N 40°38' W 074°09'0 0.0
2016-Jun-08 05:31N 40°38' W 074°09'0 0.0
2016-Jun-08 04:31N 40°38' W 074°09'0 0.0
2016-Jun-08 03:31N 40°38' W 074°09'0 0.0
2016-Jun-08 02:31N 40°38' W 074°09'0 0.0
2016-Jun-08 01:31N 40°38' W 074°09'0 0.0
2016-Jun-08 00:28N 40°38' W 074°09'0 0.0
2016-Jun-07 23:31N 40°38' W 074°09'0 0.0
2016-Jun-07 22:31N 40°38' W 074°09'0 0.0
2016-Jun-07 21:31N 40°38' W 074°09'0 0.0
2016-Jun-07 20:31N 40°38' W 074°09'0 0.0
2016-Jun-07 19:31N 40°38' W 074°09'0 0.0
2016-Jun-07 18:25N 40°38' W 074°09'0 0.0
2016-Jun-07 17:31N 40°38' W 074°09'0 0.0
2016-Jun-07 16:31N 40°38' W 074°09'0 0.0
2016-Jun-07 15:31N 40°38' W 074°09'0 0.0
2016-Jun-07 14:28N 40°38' W 074°09'0 0.0
2016-Jun-07 13:31N 40°38' W 074°09'0 0.0
2016-Jun-07 12:31N 40°38' W 074°09'0 0.0
2016-Jun-07 11:31N 40°38' W 074°09'0 0.0
2016-Jun-07 10:31N 40°38' W 074°09'0 0.0
2016-Jun-07 09:31N 40°38' W 074°09'0 0.0
2016-Jun-07 08:31N 40°38' W 074°09'0 0.0
2016-Jun-07 07:31N 40°38' W 074°09'0 0.0
2016-Jun-07 06:31N 40°38' W 074°09'0 0.0
2016-Jun-07 05:31N 40°38' W 074°09'0 0.0
2016-Jun-07 04:31N 40°38' W 074°09'0 0.0
2016-Jun-07 03:31N 40°38' W 074°09'  
Track history (hours):
 
Tides and Currents Weather Stations Pressure Air Temp Water Temp Dewpoint Dewpoint Depression Visibility Wind Speed Wind Dir Waves Ship Positions

Sand Master

Owner: Amboy Aggregates, South Amboy, NJ. More information available from US FCC via Universal Licensing System and Coast Guard Vessel Documentation Center.

Last reported at 2016-Jun-17 02:31 UTC. Time now 2016-Jul-30 16:49 UTC.
Position N 25°47' W 079°53'.
Warning: this ship's position is 43 days out of date.

Length 33 m; draft 4 m.

Type: Tug. MMSI: 367480970.

Date/timePositionNaut miles runAvg speedWind from/ knotsBaromVisibWave heightAir tempDewpointWater temp
2016-Jun-17 02:31N 25°47' W 079°53'5 4.9
2016-Jun-17 01:33N 25°52' W 079°52'5 4.8
2016-Jun-17 00:33N 25°57' W 079°51'5 4.6
2016-Jun-16 23:33N 26°01' W 079°51'5 4.7
2016-Jun-16 22:33N 26°06' W 079°50'5 5.5
2016-Jun-16 21:33N 26°11' W 079°51'6 6.5
2016-Jun-16 20:33N 26°18' W 079°51'7 7.2
2016-Jun-16 19:33N 26°25' W 079°51'7 6.6
2016-Jun-16 18:33N 26°32' W 079°51'6 6.3
2016-Jun-16 17:33N 26°38' W 079°51'9 6.4
2016-Jun-16 16:04N 26°47' W 079°51'9 5.6
2016-Jun-16 14:32N 26°56' W 079°51'5 4.9
2016-Jun-16 13:26N 27°01' W 079°52'4 4.6
2016-Jun-16 12:33N 27°05' W 079°52'  
2016-Jun-14 07:31N 31°41' W 079°27'6 6.4
2016-Jun-14 06:33N 31°46' W 079°22'28 6.2
2016-Jun-14 02:05N 32°05' W 078°58'3 5.5
2016-Jun-14 01:32N 32°07' W 078°56'143 6.8
2016-Jun-13 04:33N 33°46' W 076°52'5 5.5
2016-Jun-13 03:33N 33°50' W 076°48'6 5.8
2016-Jun-13 02:33N 33°54' W 076°42'5 5.3
2016-Jun-13 01:33N 33°57' W 076°37'6 5.6
2016-Jun-13 00:33N 34°01' W 076°33'5 5.4
2016-Jun-12 23:33N 34°05' W 076°28'5 4.7
2016-Jun-12 22:33N 34°08' W 076°24'5 4.8
2016-Jun-12 21:33N 34°11' W 076°19'5 5.0
2016-Jun-12 20:33N 34°15' W 076°15'5 4.9
2016-Jun-12 19:33N 34°18' W 076°11'5 4.9
2016-Jun-12 18:33N 34°21' W 076°06'5 5.3
2016-Jun-12 17:32N 34°25' W 076°02'6 5.9
2016-Jun-12 16:27N 34°30' W 075°57'  
2016-Jun-10 06:33N 39°39' W 073°48'7 7.0
2016-Jun-10 05:33N 39°46' W 073°46'7 6.7
2016-Jun-10 04:33N 39°53' W 073°46'42 6.4
2016-Jun-09 22:03N 40°33' W 074°02'5 9.3
2016-Jun-09 21:33N 40°37' W 074°03'7 3.3
2016-Jun-09 19:33N 40°38' W 074°12'0 0.0
2016-Jun-09 18:27N 40°38' W 074°12'0 0.0
2016-Jun-09 17:03N 40°38' W 074°12'0 0.0
2016-Jun-09 16:33N 40°38' W 074°12'0 0.0
2016-Jun-09 15:30N 40°38' W 074°12'0 0.0
2016-Jun-09 14:33N 40°38' W 074°12'0 0.3
2016-Jun-09 13:33N 40°39' W 074°12'2 1.6
2016-Jun-09 12:25N 40°38' W 074°09'0 0.0
2016-Jun-09 11:31N 40°38' W 074°09'0 0.0
2016-Jun-09 10:31N 40°38' W 074°09'0 0.0
2016-Jun-09 09:31N 40°38' W 074°09'0 0.0
2016-Jun-09 08:31N 40°38' W 074°09'0 0.0
2016-Jun-09 07:31N 40°38' W 074°09'0 0.0
2016-Jun-09 06:31N 40°38' W 074°09'0 0.0
2016-Jun-09 05:31N 40°38' W 074°09'0 0.0
2016-Jun-09 04:31N 40°38' W 074°09'0 0.0
2016-Jun-09 03:31N 40°38' W 074°09'0 0.0
2016-Jun-09 02:28N 40°38' W 074°09'0 0.0
2016-Jun-09 01:31N 40°38' W 074°09'0 0.0
2016-Jun-09 00:31N 40°38' W 074°09'0 0.0
2016-Jun-08 23:31N 40°38' W 074°09'0 0.0
2016-Jun-08 22:31N 40°38' W 074°09'0 0.0
2016-Jun-08 21:31N 40°38' W 074°09'0 0.0
2016-Jun-08 20:31N 40°38' W 074°09'0 0.0
2016-Jun-08 19:31N 40°38' W 074°09'0 0.0
2016-Jun-08 18:31N 40°38' W 074°09'0 0.0
2016-Jun-08 17:31N 40°38' W 074°09'0 0.0
2016-Jun-08 16:31N 40°38' W 074°09'0 0.0
2016-Jun-08 15:31N 40°38' W 074°09'0 0.0
2016-Jun-08 14:31N 40°38' W 074°09'0 0.0
2016-Jun-08 13:31N 40°38' W 074°09'0 0.0
2016-Jun-08 12:31N 40°38' W 074°09'0 0.0
2016-Jun-08 11:31N 40°38' W 074°09'0 0.0
2016-Jun-08 10:31N 40°38' W 074°09'0 0.0
2016-Jun-08 09:31N 40°38' W 074°09'0 0.0
2016-Jun-08 08:28N 40°38' W 074°09'0 0.0
2016-Jun-08 07:31N 40°38' W 074°09'0 0.0
2016-Jun-08 06:31N 40°38' W 074°09'0 0.0
2016-Jun-08 05:31N 40°38' W 074°09'0 0.0
2016-Jun-08 04:31N 40°38' W 074°09'0 0.0
2016-Jun-08 03:31N 40°38' W 074°09'0 0.0
2016-Jun-08 02:31N 40°38' W 074°09'0 0.0
2016-Jun-08 01:31N 40°38' W 074°09'0 0.0
2016-Jun-08 00:28N 40°38' W 074°09'0 0.0
2016-Jun-07 23:31N 40°38' W 074°09'0 0.0
2016-Jun-07 22:31N 40°38' W 074°09'0 0.0
2016-Jun-07 21:31N 40°38' W 074°09'0 0.0
2016-Jun-07 20:31N 40°38' W 074°09'0 0.0
2016-Jun-07 19:31N 40°38' W 074°09'0 0.0
2016-Jun-07 18:25N 40°38' W 074°09'0 0.0
2016-Jun-07 17:31N 40°38' W 074°09'0 0.0
2016-Jun-07 16:31N 40°38' W 074°09'0 0.0
2016-Jun-07 15:31N 40°38' W 074°09'0 0.0
2016-Jun-07 14:28N 40°38' W 074°09'0 0.0
2016-Jun-07 13:31N 40°38' W 074°09'0 0.0
2016-Jun-07 12:31N 40°38' W 074°09'0 0.0
2016-Jun-07 11:31N 40°38' W 074°09'0 0.0
2016-Jun-07 10:31N 40°38' W 074°09'0 0.0
2016-Jun-07 09:31N 40°38' W 074°09'0 0.0
2016-Jun-07 08:31N 40°38' W 074°09'0 0.0
2016-Jun-07 07:31N 40°38' W 074°09'0 0.0
2016-Jun-07 06:31N 40°38' W 074°09'0 0.0
2016-Jun-07 05:31N 40°38' W 074°09'0 0.0
2016-Jun-07 04:31N 40°38' W 074°09'0 0.0
2016-Jun-07 03:31N 40°38' W 074°09'  

Dump ship's entire track history